Seastreak New York — WDA4972 — position and weather

sailwx.info

Track history (hours):
 
Tides and Currents Weather Stations Pressure Air Temp Water Temp Dewpoint Dewpoint Depression Visibility Wind Speed Wind Dir Waves Ship Positions

Seastreak New York

Owner: CIRCLE NAVIGATION, NEW YORK, NY. More information available from US FCC via Universal Licensing System and Coast Guard Vessel Documentation Center.

Last reported at 2017-Oct-19 01:27 UTC. Time now 2017-Oct-19 02:00 UTC.
Position N 40°25' W 073°60'.

; draft 4.7 m.

Type: Passenger vessel. MMSI: 367347130.

Date/timePositionNaut miles runAvg speedWind from/ knotsBaromVisibWave heightAir tempDewpointWater temp
2017-Oct-19 01:27N 40°25' W 073°60'0 0.1
2017-Oct-19 00:34N 40°25' W 073°60'2 8.8
2017-Oct-19 00:22N 40°25' W 074°02'1130.3
2017-Oct-19 00:01N 40°36' W 074°03'917.8
2017-Oct-18 23:30N 40°45' W 073°58'612.3
2017-Oct-18 23:01N 40°39' W 074°02'1527.5
2017-Oct-18 22:28N 40°25' W 073°60'5 9.6
2017-Oct-18 21:59N 40°29' W 074°02'1328.0
2017-Oct-18 21:30N 40°42' W 074°00'3 5.8
2017-Oct-18 21:00N 40°45' W 073°58'611.2
2017-Oct-18 20:30N 40°40' W 074°01'1424.6
2017-Oct-18 19:55N 40°25' W 074°02'914.4
2017-Oct-18 19:19N 40°34' W 074°02'827.0
2017-Oct-18 19:00N 40°42' W 074°00'3 5.9
2017-Oct-18 18:31N 40°45' W 073°58'0 0.0
2017-Oct-18 18:01N 40°45' W 073°58'0 0.0
2017-Oct-18 17:30N 40°45' W 073°58'0 0.0
2017-Oct-18 17:00N 40°45' W 073°58'0 0.0
2017-Oct-18 16:30N 40°45' W 073°58'0 0.0
2017-Oct-18 16:01N 40°45' W 073°58'0 0.0
2017-Oct-18 15:30N 40°45' W 073°58'0 0.0
2017-Oct-18 15:00N 40°45' W 073°58'0 0.3
2017-Oct-18 14:01N 40°44' W 073°58'3 6.2
2017-Oct-18 13:31N 40°42' W 074°00'1631.4
2017-Oct-18 12:59N 40°25' W 074°02'612.3
2017-Oct-18 12:30N 40°31' W 074°02'1426.8
2017-Oct-18 12:00N 40°45' W 073°58'511.0
2017-Oct-18 11:31N 40°40' W 074°01'1519.6
2017-Oct-18 10:46N 40°25' W 074°01'1 2.3
2017-Oct-18 10:12N 40°25' W 073°60'0 0.1
2017-Oct-18 09:59N 40°25' W 073°60'0 0.0
2017-Oct-18 09:30N 40°25' W 073°60'0 0.0
2017-Oct-18 09:00N 40°25' W 073°60'0 0.0
2017-Oct-18 08:28N 40°25' W 073°60'0 0.0
2017-Oct-18 08:00N 40°25' W 073°60'0 0.0
2017-Oct-18 07:30N 40°25' W 073°60'0 0.0
2017-Oct-18 07:00N 40°25' W 073°60'0 0.0
2017-Oct-18 06:30N 40°25' W 073°60'0 0.0
2017-Oct-18 06:00N 40°25' W 073°60'0 0.0
2017-Oct-18 05:30N 40°25' W 073°60'0 0.0
2017-Oct-18 05:00N 40°25' W 073°60'0 0.0
2017-Oct-18 04:30N 40°25' W 073°60'0 0.0
2017-Oct-18 04:00N 40°25' W 073°60'0 0.0
2017-Oct-18 03:29N 40°25' W 073°60'0 0.0
2017-Oct-18 02:59N 40°25' W 073°60'0 0.0
2017-Oct-18 02:30N 40°25' W 073°60'0 0.0
2017-Oct-18 02:00N 40°25' W 073°60'0 0.0
2017-Oct-18 01:30N 40°25' W 073°60'0 0.0
2017-Oct-18 01:00N 40°25' W 073°60'2 3.1
2017-Oct-18 00:24N 40°25' W 074°02'1229.5
2017-Oct-18 00:00N 40°37' W 074°03'816.6
2017-Oct-17 23:30N 40°45' W 073°58'713.4
2017-Oct-17 23:01N 40°39' W 074°02'1319.4
2017-Oct-17 22:19N 40°25' W 074°01'817.1
2017-Oct-17 21:50N 40°34' W 074°02'926.7
2017-Oct-17 21:30N 40°42' W 074°00'3 5.9
2017-Oct-17 21:00N 40°45' W 073°58'612.3
2017-Oct-17 20:30N 40°39' W 074°02'1420.7
2017-Oct-17 19:50N 40°25' W 074°02'715.3
2017-Oct-17 19:23N 40°32' W 074°02'1026.2
2017-Oct-17 19:00N 40°42' W 074°00'3 5.9
2017-Oct-17 18:30N 40°45' W 073°58'0 0.0
2017-Oct-17 18:00N 40°45' W 073°58'0 0.0
2017-Oct-17 17:30N 40°45' W 073°58'0 0.0
2017-Oct-17 17:00N 40°45' W 073°58'0 0.0
2017-Oct-17 16:30N 40°45' W 073°58'0 0.0
2017-Oct-17 16:00N 40°45' W 073°58'0 0.0
2017-Oct-17 15:30N 40°45' W 073°58'0 0.0
2017-Oct-17 15:00N 40°45' W 073°58'0 0.0
2017-Oct-17 14:30N 40°45' W 073°58'0 0.0
2017-Oct-17 14:00N 40°45' W 073°58'3 6.2
2017-Oct-17 13:31N 40°42' W 074°00'9 8.6
2017-Oct-17 12:28N 40°33' W 074°02'1225.7
2017-Oct-17 12:00N 40°45' W 073°58'611.6
2017-Oct-17 11:30N 40°40' W 074°02'1419.0
2017-Oct-17 10:46N 40°25' W 074°01'1 0.1
2017-Oct-17 00:30N 40°25' W 073°60'1020.7
2017-Oct-17 00:00N 40°35' W 074°03'1020.8
2017-Oct-16 23:30N 40°45' W 073°58'715.2
2017-Oct-16 23:01N 40°38' W 074°03'1422.0
2017-Oct-16 22:24N 40°25' W 073°60'917.2
2017-Oct-16 21:51N 40°34' W 074°02'825.3
2017-Oct-16 21:30N 40°42' W 074°00'3 5.9
2017-Oct-16 21:00N 40°45' W 073°58'713.8
2017-Oct-16 20:31N 40°38' W 074°02'1319.7
2017-Oct-16 19:50N 40°25' W 074°00'817.6
2017-Oct-16 19:22N 40°33' W 074°03'925.4
2017-Oct-16 19:00N 40°42' W 074°00'3 5.8
2017-Oct-16 18:30N 40°45' W 073°58'0 0.0
2017-Oct-16 18:00N 40°45' W 073°58'0 0.0
2017-Oct-16 17:30N 40°45' W 073°58'0 0.0
2017-Oct-16 17:00N 40°45' W 073°58'0 0.0
2017-Oct-16 16:30N 40°45' W 073°58'0 0.0
2017-Oct-16 16:00N 40°45' W 073°58'0 0.0
2017-Oct-16 15:30N 40°45' W 073°58'0 0.0
2017-Oct-16 15:00N 40°45' W 073°58'0 0.0
2017-Oct-16 14:30N 40°45' W 073°58'4 3.7
2017-Oct-16 13:31N 40°41' W 074°01'9 7.9
2017-Oct-16 12:24N 40°33' W 074°02'1230.7
2017-Oct-16 12:00N 40°45' W 073°58'612.0
2017-Oct-16 11:31N 40°39' W 074°02'1418.5
2017-Oct-16 10:45N 40°25' W 074°00'1 1.4
2017-Oct-16 10:11N 40°25' W 073°60'0 0.0
2017-Oct-16 08:47N 40°25' W 073°60'0 0.0
2017-Oct-16 08:29N 40°25' W 073°60'0 0.0
2017-Oct-16 08:00N 40°25' W 073°60'0 0.0
2017-Oct-16 07:30N 40°25' W 073°60'0 0.0
2017-Oct-16 07:00N 40°25' W 073°60'0 0.0
2017-Oct-16 06:31N 40°25' W 073°60'0 0.0
2017-Oct-16 06:00N 40°25' W 073°60'0 0.0
2017-Oct-16 05:30N 40°25' W 073°60'0 0.0
2017-Oct-16 05:00N 40°25' W 073°60'0 0.0
2017-Oct-16 04:30N 40°25' W 073°60'0 0.0
2017-Oct-16 04:00N 40°25' W 073°60'0 0.0
2017-Oct-16 03:00N 40°25' W 073°60'0 0.0
2017-Oct-16 02:30N 40°25' W 073°60'0 0.0
2017-Oct-16 02:00N 40°25' W 073°60'0 0.0
2017-Oct-16 01:30N 40°25' W 073°60'0 0.0
2017-Oct-16 01:00N 40°25' W 073°60'0 0.0
2017-Oct-16 00:30N 40°25' W 073°60'0 0.0
2017-Oct-16 00:00N 40°25' W 073°60'0 0.0
2017-Oct-15 23:29N 40°25' W 073°60'0 0.0
2017-Oct-15 23:00N 40°25' W 073°60'0 0.0
2017-Oct-15 22:28N 40°25' W 073°60'919.7
2017-Oct-15 22:00N 40°34' W 074°02'816.7
2017-Oct-15 21:31N 40°42' W 074°01'1325.4
2017-Oct-15 21:00N 40°54' W 073°55'1 0.2
2017-Oct-15 13:33N 40°53' W 073°56'233.2
2017-Oct-15 13:30N 40°51' W 073°57'919.3
2017-Oct-15 13:00N 40°42' W 074°00'3 5.4
2017-Oct-15 12:31N 40°40' W 074°02'15 1.4
2017-Oct-15 01:33N 40°25' W 073°60'0 0.4
2017-Oct-15 01:28N 40°25' W 073°60'1225.8
2017-Oct-15 01:00N 40°36' W 074°03'918.0
2017-Oct-15 00:30N 40°45' W 073°58'510.6
2017-Oct-15 00:01N 40°40' W 074°01'1518.2
2017-Oct-14 23:10N 40°25' W 073°60'0 0.4
2017-Oct-14 22:59N 40°25' W 073°60'0 0.1
2017-Oct-14 22:24N 40°25' W 073°60'1129.7
2017-Oct-14 22:01N 40°36' W 074°03'612.1
2017-Oct-14 21:30N 40°42' W 074°01'1325.6
2017-Oct-14 20:59N 40°54' W 073°56'1 0.2
2017-Oct-14 13:40N 40°53' W 073°56'422.1
2017-Oct-14 13:30N 40°50' W 073°58'815.5
2017-Oct-14 13:00N 40°42' W 074°00'4 7.1
2017-Oct-14 12:30N 40°39' W 074°02'1410.0
2017-Oct-14 11:03N 40°25' W 073°60'0 0.0
2017-Oct-14 10:59N 40°25' W 073°60'0 0.0
2017-Oct-14 10:06N 40°25' W 073°60'0 0.0
2017-Oct-14 09:51N 40°25' W 073°60'0 0.0
2017-Oct-14 06:18N 40°25' W 073°60'0 0.0
2017-Oct-14 05:51N 40°25' W 073°60'0 0.0
2017-Oct-14 05:22N 40°25' W 073°60'0 0.0
2017-Oct-14 05:00N 40°25' W 073°60'0 0.0
2017-Oct-14 04:28N 40°25' W 073°60'0 0.0
2017-Oct-14 03:56N 40°25' W 073°60'0 0.0
2017-Oct-14 03:29N 40°25' W 073°60'0 0.0
2017-Oct-14 02:52N 40°25' W 073°60'0 0.0
2017-Oct-14 02:30N 40°25' W 073°60'0 0.0
2017-Oct-14 01:55N 40°25' W 073°60'0 0.0
2017-Oct-14 01:30N 40°25' W 073°60'10 6.9
2017-Oct-14 00:03N 40°34' W 074°02'136.4
2017-Oct-14 00:00N 40°36' W 074°03'1 0.7
2017-Oct-13 23:00N 40°37' W 074°03'1223.8
2017-Oct-13 22:30N 40°25' W 074°00'811.9
2017-Oct-13 21:50N 40°33' W 074°02'1029.8
2017-Oct-13 21:30N 40°42' W 074°00'3 5.8
2017-Oct-13 21:00N 40°45' W 073°58'510.4
2017-Oct-13 20:30N 40°40' W 074°01'1521.3
2017-Oct-13 19:49N 40°25' W 074°00'919.0
2017-Oct-13 19:21N 40°34' W 074°03'823.4
2017-Oct-13 19:00N 40°42' W 074°00'3 5.8
2017-Oct-13 18:30N 40°45' W 073°58'0 0.0
2017-Oct-13 18:00N 40°45' W 073°58'0 0.0
2017-Oct-13 17:30N 40°45' W 073°58'0 0.0
2017-Oct-13 17:00N 40°45' W 073°58'0 0.0
2017-Oct-13 16:30N 40°45' W 073°58'0 0.0
2017-Oct-13 16:00N 40°45' W 073°58'0 0.0
2017-Oct-13 15:30N 40°45' W 073°58'0 0.0
2017-Oct-13 15:00N 40°45' W 073°58'0 0.0
2017-Oct-13 14:30N 40°45' W 073°58'0 0.0
2017-Oct-13 14:00N 40°45' W 073°58'3 6.0
2017-Oct-13 13:30N 40°42' W 074°00'1530.6
2017-Oct-13 13:00N 40°27' W 074°02'4 8.4
2017-Oct-13 12:30N 40°31' W 074°02'1427.6
2017-Oct-13 12:00N 40°45' W 073°58'611.7
2017-Oct-13 11:30N 40°39' W 074°02'1418.6
2017-Oct-13 10:44N 40°25' W 074°00'1 1.5
2017-Oct-13 10:14N 40°25' W 073°60'0 0.2
2017-Oct-13 09:59N 40°25' W 073°60'0 0.0
2017-Oct-13 09:28N 40°25' W 073°60'0 0.0
2017-Oct-13 09:00N 40°25' W 073°60'0 0.0
2017-Oct-13 08:30N 40°25' W 073°60'0 0.0
2017-Oct-13 08:00N 40°25' W 073°60'0 0.0
2017-Oct-13 07:29N 40°25' W 073°60'0 0.0
2017-Oct-13 07:00N 40°25' W 073°60'0 0.0
2017-Oct-13 06:27N 40°25' W 073°60'0 0.0
2017-Oct-13 05:52N 40°25' W 073°60'0 0.0
2017-Oct-13 05:29N 40°25' W 073°60'0 0.0
2017-Oct-13 04:59N 40°25' W 073°60'0 0.0
2017-Oct-13 04:29N 40°25' W 073°60'0 0.0
2017-Oct-13 04:00N 40°25' W 073°60'0 0.0
2017-Oct-13 03:30N 40°25' W 073°60'0 0.0
2017-Oct-13 03:00N 40°25' W 073°60'0 0.0
2017-Oct-13 02:30N 40°25' W 073°60'0 0.0
2017-Oct-13 02:00N 40°25' W 073°60'0 0.0
2017-Oct-13 01:29N 40°25' W 073°60'0 0.0
2017-Oct-13 00:52N 40°25' W 073°60'1314.6
2017-Oct-12 23:59N 40°37' W 074°03'816.8
2017-Oct-12 23:30N 40°45' W 073°58'611.2
2017-Oct-12 23:00N 40°40' W 074°01'1529.9
2017-Oct-12 22:30N 40°25' W 074°00'6 9.6
2017-Oct-12 21:54N 40°30' W 074°02'1229.5
2017-Oct-12 21:30N 40°42' W 074°00'3 5.9
2017-Oct-12 21:00N 40°45' W 073°58'712.9
2017-Oct-12 20:30N 40°39' W 074°02'1420.0
2017-Oct-12 19:49N 40°25' W 074°01'715.2
2017-Oct-12 19:20N 40°33' W 074°02'1030.3
2017-Oct-12 19:00N 40°42' W 074°00'3 5.8
2017-Oct-12 18:30N 40°45' W 073°58'0 0.0
2017-Oct-12 18:00N 40°45' W 073°58'0 0.0
2017-Oct-12 17:30N 40°45' W 073°58'0 0.0
2017-Oct-12 17:00N 40°45' W 073°58'0 0.0
2017-Oct-12 16:30N 40°45' W 073°58'0 0.0
2017-Oct-12 16:00N 40°45' W 073°58'0 0.0
2017-Oct-12 15:30N 40°45' W 073°58'0 0.0
2017-Oct-12 15:00N 40°45' W 073°58'0 0.0
2017-Oct-12 14:30N 40°45' W 073°58'0 0.0
2017-Oct-12 14:00N 40°45' W 073°58'4 7.2
2017-Oct-12 13:30N 40°41' W 074°01'1110.6
2017-Oct-12 12:30N 40°31' W 074°02'1428.2
2017-Oct-12 12:00N 40°45' W 073°58'714.2
2017-Oct-12 11:30N 40°38' W 074°03'14 1.9
2017-Oct-12 04:05N 40°25' W 073°60'0 0.0
2017-Oct-12 03:50N 40°25' W 073°60'0 0.0
2017-Oct-12 03:29N 40°25' W 073°60'0 0.0
2017-Oct-12 02:57N 40°25' W 073°60'0 0.0
2017-Oct-12 02:28N 40°25' W 073°60'0 0.0
2017-Oct-12 02:00N 40°25' W 073°60'0 0.0
2017-Oct-12 01:30N 40°25' W 073°60'0 0.1
2017-Oct-12 00:57N 40°25' W 073°60'0 0.7
2017-Oct-12 00:30N 40°25' W 074°00'1121.8
2017-Oct-12 00:00N 40°35' W 074°03'1019.9
2017-Oct-11 23:30N 40°45' W 073°58'2 4.6
2017-Oct-11 23:00N 40°42' W 073°59'1632.0
2017-Oct-11 22:30N 40°26' W 074°01'3 4.9
2017-Oct-11 21:56N 40°29' W 074°02'1330.7
2017-Oct-11 21:30N 40°42' W 074°00'3 6.0
2017-Oct-11 21:01N 40°45' W 073°58'713.6
2017-Oct-11 20:31N 40°39' W 074°02'1322.1
2017-Oct-11 19:54N 40°25' W 074°02'714.3
2017-Oct-11 19:25N 40°32' W 074°02'1024.9
2017-Oct-11 19:00N 40°42' W 074°00'510.2
2017-Oct-11 18:30N 40°37' W 074°03'1325.4
2017-Oct-11 17:59N 40°25' W 073°60'11 0.6
2017-Oct-10 23:59N 40°36' W 074°03'1019.8
2017-Oct-10 23:30N 40°45' W 073°58'612.7
2017-Oct-10 23:01N 40°39' W 074°02'1428.2
2017-Oct-10 22:30N 40°25' W 074°00'1013.4
2017-Oct-10 21:47N 40°34' W 074°02'829.5
2017-Oct-10 21:30N 40°42' W 074°00'3 5.9
2017-Oct-10 21:00N 40°45' W 073°58'611.9
2017-Oct-10 20:31N 40°39' W 074°02'1420.5
2017-Oct-10 19:49N 40°25' W 074°00'1017.5
2017-Oct-10 19:16N 40°35' W 074°02'831.2
2017-Oct-10 19:01N 40°42' W 074°00'3 5.8
2017-Oct-10 18:30N 40°45' W 073°58'0 0.0
2017-Oct-10 18:00N 40°45' W 073°58'0 0.0
2017-Oct-10 17:30N 40°45' W 073°58'0 0.0
2017-Oct-10 17:00N 40°45' W 073°58'0 0.0
2017-Oct-10 16:30N 40°45' W 073°58'0 0.0
2017-Oct-10 16:00N 40°45' W 073°58'0 0.0
2017-Oct-10 15:30N 40°45' W 073°58'0 0.0
2017-Oct-10 15:00N 40°45' W 073°58'0 0.0
2017-Oct-10 14:00N 40°45' W 073°58'3 6.2
2017-Oct-10 13:31N 40°42' W 074°00'1731.8
2017-Oct-10 12:59N 40°25' W 074°02'919.7
2017-Oct-10 12:30N 40°35' W 074°03'1020.9
2017-Oct-10 12:01N 40°45' W 073°58'611.5
2017-Oct-10 11:31N 40°39' W 074°02'1423.2
2017-Oct-10 10:53N 40°25' W 074°02'9 0.9
2017-Oct-10 00:05N 40°35' W 074°03'334.9
2017-Oct-10 00:00N 40°38' W 074°03'815.7
2017-Oct-09 23:30N 40°45' W 073°58'611.4
2017-Oct-09 23:01N 40°40' W 074°01'5 4.2
2017-Oct-09 21:46N 40°34' W 074°03'830.2
2017-Oct-09 21:30N 40°42' W 074°00'3 5.9
2017-Oct-09 21:00N 40°45' W 073°58'713.8
2017-Oct-09 20:31N 40°38' W 074°02'1318.9
2017-Oct-09 19:48N 40°25' W 074°00'917.1
2017-Oct-09 19:17N 40°34' W 074°02'830.1
2017-Oct-09 19:00N 40°42' W 074°00'3 5.8
2017-Oct-09 18:30N 40°45' W 073°58'0 0.0
2017-Oct-09 18:00N 40°45' W 073°58'0 0.0
2017-Oct-09 17:30N 40°45' W 073°58'0 0.0
2017-Oct-09 17:00N 40°45' W 073°58'0 0.0
2017-Oct-09 16:30N 40°45' W 073°58'0 0.0
2017-Oct-09 16:00N 40°45' W 073°58'0 0.0
2017-Oct-09 15:30N 40°45' W 073°58'0 0.0
2017-Oct-09 15:00N 40°45' W 073°58'0 0.0
2017-Oct-09 14:30N 40°45' W 073°58'0 0.0
2017-Oct-09 14:00N 40°45' W 073°58'3 6.1
2017-Oct-09 13:31N 40°42' W 074°00'1530.5
2017-Oct-09 13:00N 40°27' W 074°02'611.1
2017-Oct-09 12:28N 40°33' W 074°02'1226.8
2017-Oct-09 12:00N 40°45' W 073°58'5 9.1
2017-Oct-09 11:31N 40°41' W 074°02'1620.4
2017-Oct-09 10:44N 40°25' W 074°00'  
Track history (hours):
 
Tides and Currents Weather Stations Pressure Air Temp Water Temp Dewpoint Dewpoint Depression Visibility Wind Speed Wind Dir Waves Ship Positions

Seastreak New York

Owner: CIRCLE NAVIGATION, NEW YORK, NY. More information available from US FCC via Universal Licensing System and Coast Guard Vessel Documentation Center.

Last reported at 2017-Oct-19 01:27 UTC. Time now 2017-Oct-19 02:00 UTC.
Position N 40°25' W 073°60'.

; draft 4.7 m.

Type: Passenger vessel. MMSI: 367347130.

Date/timePositionNaut miles runAvg speedWind from/ knotsBaromVisibWave heightAir tempDewpointWater temp
2017-Oct-19 01:27N 40°25' W 073°60'0 0.1
2017-Oct-19 00:34N 40°25' W 073°60'2 8.8
2017-Oct-19 00:22N 40°25' W 074°02'1130.3
2017-Oct-19 00:01N 40°36' W 074°03'917.8
2017-Oct-18 23:30N 40°45' W 073°58'612.3
2017-Oct-18 23:01N 40°39' W 074°02'1527.5
2017-Oct-18 22:28N 40°25' W 073°60'5 9.6
2017-Oct-18 21:59N 40°29' W 074°02'1328.0
2017-Oct-18 21:30N 40°42' W 074°00'3 5.8
2017-Oct-18 21:00N 40°45' W 073°58'611.2
2017-Oct-18 20:30N 40°40' W 074°01'1424.6
2017-Oct-18 19:55N 40°25' W 074°02'914.4
2017-Oct-18 19:19N 40°34' W 074°02'827.0
2017-Oct-18 19:00N 40°42' W 074°00'3 5.9
2017-Oct-18 18:31N 40°45' W 073°58'0 0.0
2017-Oct-18 18:01N 40°45' W 073°58'0 0.0
2017-Oct-18 17:30N 40°45' W 073°58'0 0.0
2017-Oct-18 17:00N 40°45' W 073°58'0 0.0
2017-Oct-18 16:30N 40°45' W 073°58'0 0.0
2017-Oct-18 16:01N 40°45' W 073°58'0 0.0
2017-Oct-18 15:30N 40°45' W 073°58'0 0.0
2017-Oct-18 15:00N 40°45' W 073°58'0 0.3
2017-Oct-18 14:01N 40°44' W 073°58'3 6.2
2017-Oct-18 13:31N 40°42' W 074°00'1631.4
2017-Oct-18 12:59N 40°25' W 074°02'612.3
2017-Oct-18 12:30N 40°31' W 074°02'1426.8
2017-Oct-18 12:00N 40°45' W 073°58'511.0
2017-Oct-18 11:31N 40°40' W 074°01'1519.6
2017-Oct-18 10:46N 40°25' W 074°01'1 2.3
2017-Oct-18 10:12N 40°25' W 073°60'0 0.1
2017-Oct-18 09:59N 40°25' W 073°60'0 0.0
2017-Oct-18 09:30N 40°25' W 073°60'0 0.0
2017-Oct-18 09:00N 40°25' W 073°60'0 0.0
2017-Oct-18 08:28N 40°25' W 073°60'0 0.0
2017-Oct-18 08:00N 40°25' W 073°60'0 0.0
2017-Oct-18 07:30N 40°25' W 073°60'0 0.0
2017-Oct-18 07:00N 40°25' W 073°60'0 0.0
2017-Oct-18 06:30N 40°25' W 073°60'0 0.0
2017-Oct-18 06:00N 40°25' W 073°60'0 0.0
2017-Oct-18 05:30N 40°25' W 073°60'0 0.0
2017-Oct-18 05:00N 40°25' W 073°60'0 0.0
2017-Oct-18 04:30N 40°25' W 073°60'0 0.0
2017-Oct-18 04:00N 40°25' W 073°60'0 0.0
2017-Oct-18 03:29N 40°25' W 073°60'0 0.0
2017-Oct-18 02:59N 40°25' W 073°60'0 0.0
2017-Oct-18 02:30N 40°25' W 073°60'0 0.0
2017-Oct-18 02:00N 40°25' W 073°60'0 0.0
2017-Oct-18 01:30N 40°25' W 073°60'0 0.0
2017-Oct-18 01:00N 40°25' W 073°60'2 3.1
2017-Oct-18 00:24N 40°25' W 074°02'1229.5
2017-Oct-18 00:00N 40°37' W 074°03'816.6
2017-Oct-17 23:30N 40°45' W 073°58'713.4
2017-Oct-17 23:01N 40°39' W 074°02'1319.4
2017-Oct-17 22:19N 40°25' W 074°01'817.1
2017-Oct-17 21:50N 40°34' W 074°02'926.7
2017-Oct-17 21:30N 40°42' W 074°00'3 5.9
2017-Oct-17 21:00N 40°45' W 073°58'612.3
2017-Oct-17 20:30N 40°39' W 074°02'1420.7
2017-Oct-17 19:50N 40°25' W 074°02'715.3
2017-Oct-17 19:23N 40°32' W 074°02'1026.2
2017-Oct-17 19:00N 40°42' W 074°00'3 5.9
2017-Oct-17 18:30N 40°45' W 073°58'0 0.0
2017-Oct-17 18:00N 40°45' W 073°58'0 0.0
2017-Oct-17 17:30N 40°45' W 073°58'0 0.0
2017-Oct-17 17:00N 40°45' W 073°58'0 0.0
2017-Oct-17 16:30N 40°45' W 073°58'0 0.0
2017-Oct-17 16:00N 40°45' W 073°58'0 0.0
2017-Oct-17 15:30N 40°45' W 073°58'0 0.0
2017-Oct-17 15:00N 40°45' W 073°58'0 0.0
2017-Oct-17 14:30N 40°45' W 073°58'0 0.0
2017-Oct-17 14:00N 40°45' W 073°58'3 6.2
2017-Oct-17 13:31N 40°42' W 074°00'9 8.6
2017-Oct-17 12:28N 40°33' W 074°02'1225.7
2017-Oct-17 12:00N 40°45' W 073°58'611.6
2017-Oct-17 11:30N 40°40' W 074°02'1419.0
2017-Oct-17 10:46N 40°25' W 074°01'1 0.1
2017-Oct-17 00:30N 40°25' W 073°60'1020.7
2017-Oct-17 00:00N 40°35' W 074°03'1020.8
2017-Oct-16 23:30N 40°45' W 073°58'715.2
2017-Oct-16 23:01N 40°38' W 074°03'1422.0
2017-Oct-16 22:24N 40°25' W 073°60'917.2
2017-Oct-16 21:51N 40°34' W 074°02'825.3
2017-Oct-16 21:30N 40°42' W 074°00'3 5.9
2017-Oct-16 21:00N 40°45' W 073°58'713.8
2017-Oct-16 20:31N 40°38' W 074°02'1319.7
2017-Oct-16 19:50N 40°25' W 074°00'817.6
2017-Oct-16 19:22N 40°33' W 074°03'925.4
2017-Oct-16 19:00N 40°42' W 074°00'3 5.8
2017-Oct-16 18:30N 40°45' W 073°58'0 0.0
2017-Oct-16 18:00N 40°45' W 073°58'0 0.0
2017-Oct-16 17:30N 40°45' W 073°58'0 0.0
2017-Oct-16 17:00N 40°45' W 073°58'0 0.0
2017-Oct-16 16:30N 40°45' W 073°58'0 0.0
2017-Oct-16 16:00N 40°45' W 073°58'0 0.0
2017-Oct-16 15:30N 40°45' W 073°58'0 0.0
2017-Oct-16 15:00N 40°45' W 073°58'0 0.0
2017-Oct-16 14:30N 40°45' W 073°58'4 3.7
2017-Oct-16 13:31N 40°41' W 074°01'9 7.9
2017-Oct-16 12:24N 40°33' W 074°02'1230.7
2017-Oct-16 12:00N 40°45' W 073°58'612.0
2017-Oct-16 11:31N 40°39' W 074°02'1418.5
2017-Oct-16 10:45N 40°25' W 074°00'1 1.4
2017-Oct-16 10:11N 40°25' W 073°60'0 0.0
2017-Oct-16 08:47N 40°25' W 073°60'0 0.0
2017-Oct-16 08:29N 40°25' W 073°60'0 0.0
2017-Oct-16 08:00N 40°25' W 073°60'0 0.0
2017-Oct-16 07:30N 40°25' W 073°60'0 0.0
2017-Oct-16 07:00N 40°25' W 073°60'0 0.0
2017-Oct-16 06:31N 40°25' W 073°60'0 0.0
2017-Oct-16 06:00N 40°25' W 073°60'0 0.0
2017-Oct-16 05:30N 40°25' W 073°60'0 0.0
2017-Oct-16 05:00N 40°25' W 073°60'0 0.0
2017-Oct-16 04:30N 40°25' W 073°60'0 0.0
2017-Oct-16 04:00N 40°25' W 073°60'0 0.0
2017-Oct-16 03:00N 40°25' W 073°60'0 0.0
2017-Oct-16 02:30N 40°25' W 073°60'0 0.0
2017-Oct-16 02:00N 40°25' W 073°60'0 0.0
2017-Oct-16 01:30N 40°25' W 073°60'0 0.0
2017-Oct-16 01:00N 40°25' W 073°60'0 0.0
2017-Oct-16 00:30N 40°25' W 073°60'0 0.0
2017-Oct-16 00:00N 40°25' W 073°60'0 0.0
2017-Oct-15 23:29N 40°25' W 073°60'0 0.0
2017-Oct-15 23:00N 40°25' W 073°60'0 0.0
2017-Oct-15 22:28N 40°25' W 073°60'919.7
2017-Oct-15 22:00N 40°34' W 074°02'816.7
2017-Oct-15 21:31N 40°42' W 074°01'1325.4
2017-Oct-15 21:00N 40°54' W 073°55'1 0.2
2017-Oct-15 13:33N 40°53' W 073°56'233.2
2017-Oct-15 13:30N 40°51' W 073°57'919.3
2017-Oct-15 13:00N 40°42' W 074°00'3 5.4
2017-Oct-15 12:31N 40°40' W 074°02'15 1.4
2017-Oct-15 01:33N 40°25' W 073°60'0 0.4
2017-Oct-15 01:28N 40°25' W 073°60'1225.8
2017-Oct-15 01:00N 40°36' W 074°03'918.0
2017-Oct-15 00:30N 40°45' W 073°58'510.6
2017-Oct-15 00:01N 40°40' W 074°01'1518.2
2017-Oct-14 23:10N 40°25' W 073°60'0 0.4
2017-Oct-14 22:59N 40°25' W 073°60'0 0.1
2017-Oct-14 22:24N 40°25' W 073°60'1129.7
2017-Oct-14 22:01N 40°36' W 074°03'612.1
2017-Oct-14 21:30N 40°42' W 074°01'1325.6
2017-Oct-14 20:59N 40°54' W 073°56'1 0.2
2017-Oct-14 13:40N 40°53' W 073°56'422.1
2017-Oct-14 13:30N 40°50' W 073°58'815.5
2017-Oct-14 13:00N 40°42' W 074°00'4 7.1
2017-Oct-14 12:30N 40°39' W 074°02'1410.0
2017-Oct-14 11:03N 40°25' W 073°60'0 0.0
2017-Oct-14 10:59N 40°25' W 073°60'0 0.0
2017-Oct-14 10:06N 40°25' W 073°60'0 0.0
2017-Oct-14 09:51N 40°25' W 073°60'0 0.0
2017-Oct-14 06:18N 40°25' W 073°60'0 0.0
2017-Oct-14 05:51N 40°25' W 073°60'0 0.0
2017-Oct-14 05:22N 40°25' W 073°60'0 0.0
2017-Oct-14 05:00N 40°25' W 073°60'0 0.0
2017-Oct-14 04:28N 40°25' W 073°60'0 0.0
2017-Oct-14 03:56N 40°25' W 073°60'0 0.0
2017-Oct-14 03:29N 40°25' W 073°60'0 0.0
2017-Oct-14 02:52N 40°25' W 073°60'0 0.0
2017-Oct-14 02:30N 40°25' W 073°60'0 0.0
2017-Oct-14 01:55N 40°25' W 073°60'0 0.0
2017-Oct-14 01:30N 40°25' W 073°60'10 6.9
2017-Oct-14 00:03N 40°34' W 074°02'136.4
2017-Oct-14 00:00N 40°36' W 074°03'1 0.7
2017-Oct-13 23:00N 40°37' W 074°03'1223.8
2017-Oct-13 22:30N 40°25' W 074°00'811.9
2017-Oct-13 21:50N 40°33' W 074°02'1029.8
2017-Oct-13 21:30N 40°42' W 074°00'3 5.8
2017-Oct-13 21:00N 40°45' W 073°58'510.4
2017-Oct-13 20:30N 40°40' W 074°01'1521.3
2017-Oct-13 19:49N 40°25' W 074°00'919.0
2017-Oct-13 19:21N 40°34' W 074°03'823.4
2017-Oct-13 19:00N 40°42' W 074°00'3 5.8
2017-Oct-13 18:30N 40°45' W 073°58'0 0.0
2017-Oct-13 18:00N 40°45' W 073°58'0 0.0
2017-Oct-13 17:30N 40°45' W 073°58'0 0.0
2017-Oct-13 17:00N 40°45' W 073°58'0 0.0
2017-Oct-13 16:30N 40°45' W 073°58'0 0.0
2017-Oct-13 16:00N 40°45' W 073°58'0 0.0
2017-Oct-13 15:30N 40°45' W 073°58'0 0.0
2017-Oct-13 15:00N 40°45' W 073°58'0 0.0
2017-Oct-13 14:30N 40°45' W 073°58'0 0.0
2017-Oct-13 14:00N 40°45' W 073°58'3 6.0
2017-Oct-13 13:30N 40°42' W 074°00'1530.6
2017-Oct-13 13:00N 40°27' W 074°02'4 8.4
2017-Oct-13 12:30N 40°31' W 074°02'1427.6
2017-Oct-13 12:00N 40°45' W 073°58'611.7
2017-Oct-13 11:30N 40°39' W 074°02'1418.6
2017-Oct-13 10:44N 40°25' W 074°00'1 1.5
2017-Oct-13 10:14N 40°25' W 073°60'0 0.2
2017-Oct-13 09:59N 40°25' W 073°60'0 0.0
2017-Oct-13 09:28N 40°25' W 073°60'0 0.0
2017-Oct-13 09:00N 40°25' W 073°60'0 0.0
2017-Oct-13 08:30N 40°25' W 073°60'0 0.0
2017-Oct-13 08:00N 40°25' W 073°60'0 0.0
2017-Oct-13 07:29N 40°25' W 073°60'0 0.0
2017-Oct-13 07:00N 40°25' W 073°60'0 0.0
2017-Oct-13 06:27N 40°25' W 073°60'0 0.0
2017-Oct-13 05:52N 40°25' W 073°60'0 0.0
2017-Oct-13 05:29N 40°25' W 073°60'0 0.0
2017-Oct-13 04:59N 40°25' W 073°60'0 0.0
2017-Oct-13 04:29N 40°25' W 073°60'0 0.0
2017-Oct-13 04:00N 40°25' W 073°60'0 0.0
2017-Oct-13 03:30N 40°25' W 073°60'0 0.0
2017-Oct-13 03:00N 40°25' W 073°60'0 0.0
2017-Oct-13 02:30N 40°25' W 073°60'0 0.0
2017-Oct-13 02:00N 40°25' W 073°60'0 0.0
2017-Oct-13 01:29N 40°25' W 073°60'0 0.0
2017-Oct-13 00:52N 40°25' W 073°60'1314.6
2017-Oct-12 23:59N 40°37' W 074°03'816.8
2017-Oct-12 23:30N 40°45' W 073°58'611.2
2017-Oct-12 23:00N 40°40' W 074°01'1529.9
2017-Oct-12 22:30N 40°25' W 074°00'6 9.6
2017-Oct-12 21:54N 40°30' W 074°02'1229.5
2017-Oct-12 21:30N 40°42' W 074°00'3 5.9
2017-Oct-12 21:00N 40°45' W 073°58'712.9
2017-Oct-12 20:30N 40°39' W 074°02'1420.0
2017-Oct-12 19:49N 40°25' W 074°01'715.2
2017-Oct-12 19:20N 40°33' W 074°02'1030.3
2017-Oct-12 19:00N 40°42' W 074°00'3 5.8
2017-Oct-12 18:30N 40°45' W 073°58'0 0.0
2017-Oct-12 18:00N 40°45' W 073°58'0 0.0
2017-Oct-12 17:30N 40°45' W 073°58'0 0.0
2017-Oct-12 17:00N 40°45' W 073°58'0 0.0
2017-Oct-12 16:30N 40°45' W 073°58'0 0.0
2017-Oct-12 16:00N 40°45' W 073°58'0 0.0
2017-Oct-12 15:30N 40°45' W 073°58'0 0.0
2017-Oct-12 15:00N 40°45' W 073°58'0 0.0
2017-Oct-12 14:30N 40°45' W 073°58'0 0.0
2017-Oct-12 14:00N 40°45' W 073°58'4 7.2
2017-Oct-12 13:30N 40°41' W 074°01'1110.6
2017-Oct-12 12:30N 40°31' W 074°02'1428.2
2017-Oct-12 12:00N 40°45' W 073°58'714.2
2017-Oct-12 11:30N 40°38' W 074°03'14 1.9
2017-Oct-12 04:05N 40°25' W 073°60'0 0.0
2017-Oct-12 03:50N 40°25' W 073°60'0 0.0
2017-Oct-12 03:29N 40°25' W 073°60'0 0.0
2017-Oct-12 02:57N 40°25' W 073°60'0 0.0
2017-Oct-12 02:28N 40°25' W 073°60'0 0.0
2017-Oct-12 02:00N 40°25' W 073°60'0 0.0
2017-Oct-12 01:30N 40°25' W 073°60'0 0.1
2017-Oct-12 00:57N 40°25' W 073°60'0 0.7
2017-Oct-12 00:30N 40°25' W 074°00'1121.8
2017-Oct-12 00:00N 40°35' W 074°03'1019.9
2017-Oct-11 23:30N 40°45' W 073°58'2 4.6
2017-Oct-11 23:00N 40°42' W 073°59'1632.0
2017-Oct-11 22:30N 40°26' W 074°01'3 4.9
2017-Oct-11 21:56N 40°29' W 074°02'1330.7
2017-Oct-11 21:30N 40°42' W 074°00'3 6.0
2017-Oct-11 21:01N 40°45' W 073°58'713.6
2017-Oct-11 20:31N 40°39' W 074°02'1322.1
2017-Oct-11 19:54N 40°25' W 074°02'714.3
2017-Oct-11 19:25N 40°32' W 074°02'1024.9
2017-Oct-11 19:00N 40°42' W 074°00'510.2
2017-Oct-11 18:30N 40°37' W 074°03'1325.4
2017-Oct-11 17:59N 40°25' W 073°60'11 0.6
2017-Oct-10 23:59N 40°36' W 074°03'1019.8
2017-Oct-10 23:30N 40°45' W 073°58'612.7
2017-Oct-10 23:01N 40°39' W 074°02'1428.2
2017-Oct-10 22:30N 40°25' W 074°00'1013.4
2017-Oct-10 21:47N 40°34' W 074°02'829.5
2017-Oct-10 21:30N 40°42' W 074°00'3 5.9
2017-Oct-10 21:00N 40°45' W 073°58'611.9
2017-Oct-10 20:31N 40°39' W 074°02'1420.5
2017-Oct-10 19:49N 40°25' W 074°00'1017.5
2017-Oct-10 19:16N 40°35' W 074°02'831.2
2017-Oct-10 19:01N 40°42' W 074°00'3 5.8
2017-Oct-10 18:30N 40°45' W 073°58'0 0.0
2017-Oct-10 18:00N 40°45' W 073°58'0 0.0
2017-Oct-10 17:30N 40°45' W 073°58'0 0.0
2017-Oct-10 17:00N 40°45' W 073°58'0 0.0
2017-Oct-10 16:30N 40°45' W 073°58'0 0.0
2017-Oct-10 16:00N 40°45' W 073°58'0 0.0
2017-Oct-10 15:30N 40°45' W 073°58'0 0.0
2017-Oct-10 15:00N 40°45' W 073°58'0 0.0
2017-Oct-10 14:00N 40°45' W 073°58'3 6.2
2017-Oct-10 13:31N 40°42' W 074°00'1731.8
2017-Oct-10 12:59N 40°25' W 074°02'919.7
2017-Oct-10 12:30N 40°35' W 074°03'1020.9
2017-Oct-10 12:01N 40°45' W 073°58'611.5
2017-Oct-10 11:31N 40°39' W 074°02'1423.2
2017-Oct-10 10:53N 40°25' W 074°02'9 0.9
2017-Oct-10 00:05N 40°35' W 074°03'334.9
2017-Oct-10 00:00N 40°38' W 074°03'815.7
2017-Oct-09 23:30N 40°45' W 073°58'611.4
2017-Oct-09 23:01N 40°40' W 074°01'5 4.2
2017-Oct-09 21:46N 40°34' W 074°03'830.2
2017-Oct-09 21:30N 40°42' W 074°00'3 5.9
2017-Oct-09 21:00N 40°45' W 073°58'713.8
2017-Oct-09 20:31N 40°38' W 074°02'1318.9
2017-Oct-09 19:48N 40°25' W 074°00'917.1
2017-Oct-09 19:17N 40°34' W 074°02'830.1
2017-Oct-09 19:00N 40°42' W 074°00'3 5.8
2017-Oct-09 18:30N 40°45' W 073°58'0 0.0
2017-Oct-09 18:00N 40°45' W 073°58'0 0.0
2017-Oct-09 17:30N 40°45' W 073°58'0 0.0
2017-Oct-09 17:00N 40°45' W 073°58'0 0.0
2017-Oct-09 16:30N 40°45' W 073°58'0 0.0
2017-Oct-09 16:00N 40°45' W 073°58'0 0.0
2017-Oct-09 15:30N 40°45' W 073°58'0 0.0
2017-Oct-09 15:00N 40°45' W 073°58'0 0.0
2017-Oct-09 14:30N 40°45' W 073°58'0 0.0
2017-Oct-09 14:00N 40°45' W 073°58'3 6.1
2017-Oct-09 13:31N 40°42' W 074°00'1530.5
2017-Oct-09 13:00N 40°27' W 074°02'611.1
2017-Oct-09 12:28N 40°33' W 074°02'1226.8
2017-Oct-09 12:00N 40°45' W 073°58'5 9.1
2017-Oct-09 11:31N 40°41' W 074°02'1620.4
2017-Oct-09 10:44N 40°25' W 074°00'  

Dump ship's entire track history